sensor_id;sensor_type;location;lat;lon;timestamp;P1;durP1;ratioP1;P2;durP2;ratioP2
7585;SDS011;12459;42.646;23.292;2023-09-19T00:14:19;31.07;;;29.60;;
7585;SDS011;12459;42.646;23.292;2023-09-19T00:29:21;32.50;;;30.97;;
7585;SDS011;12459;42.646;23.292;2023-09-19T00:44:24;31.23;;;29.77;;
7585;SDS011;12459;42.646;23.292;2023-09-19T00:59:26;32.67;;;31.17;;
7585;SDS011;12459;42.646;23.292;2023-09-19T01:45:37;28.73;;;27.37;;
7585;SDS011;12459;42.646;23.292;2023-09-19T02:00:44;30.30;;;28.90;;
7585;SDS011;12459;42.646;23.292;2023-09-19T02:15:53;30.20;;;28.80;;
7585;SDS011;12459;42.646;23.292;2023-09-19T02:30:55;26.57;;;25.33;;
7585;SDS011;12459;42.646;23.292;2023-09-19T02:45:57;26.40;;;25.17;;
7585;SDS011;12459;42.646;23.292;2023-09-19T03:00:59;27.53;;;26.23;;
7585;SDS011;12459;42.646;23.292;2023-09-19T03:16:00;27.03;;;25.73;;
7585;SDS011;12459;42.646;23.292;2023-09-19T03:31:03;25.37;;;24.17;;
7585;SDS011;12459;42.646;23.292;2023-09-19T03:46:06;25.47;;;24.27;;
7585;SDS011;12459;42.646;23.292;2023-09-19T04:01:09;26.57;;;25.27;;
7585;SDS011;12459;42.646;23.292;2023-09-19T04:16:10;24.80;;;23.60;;
7585;SDS011;12459;42.646;23.292;2023-09-19T04:31:12;22.97;;;21.87;;
7585;SDS011;12459;42.646;23.292;2023-09-19T04:46:15;29.17;;;27.77;;
7585;SDS011;12459;42.646;23.292;2023-09-19T05:01:19;33.73;;;32.17;;
7585;SDS011;12459;42.646;23.292;2023-09-19T05:16:24;27.93;;;26.63;;
7585;SDS011;12459;42.646;23.292;2023-09-19T05:31:25;28.43;;;27.13;;
7585;SDS011;12459;42.646;23.292;2023-09-19T05:46:27;32.97;;;31.47;;
7585;SDS011;12459;42.646;23.292;2023-09-19T06:01:31;32.40;;;30.90;;
7585;SDS011;12459;42.646;23.292;2023-09-19T06:16:35;33.70;;;32.10;;
7585;SDS011;12459;42.646;23.292;2023-09-19T06:31:39;37.70;;;35.97;;
7585;SDS011;12459;42.646;23.292;2023-09-19T06:46:41;34.67;;;33.07;;
7585;SDS011;12459;42.646;23.292;2023-09-19T07:01:43;33.63;;;32.07;;
7585;SDS011;12459;42.646;23.292;2023-09-19T07:16:46;38.53;;;36.73;;
7585;SDS011;12459;42.646;23.292;2023-09-19T07:31:49;39.67;;;37.87;;
7585;SDS011;12459;42.646;23.292;2023-09-19T07:46:51;43.23;;;41.23;;
7585;SDS011;12459;42.646;23.292;2023-09-19T08:01:53;43.83;;;41.83;;
7585;SDS011;12459;42.646;23.292;2023-09-19T08:16:58;41.97;;;40.07;;
7585;SDS011;12459;42.646;23.292;2023-09-19T08:32:00;40.53;;;38.67;;
7585;SDS011;12459;42.646;23.292;2023-09-19T08:47:08;43.47;;;41.47;;
7585;SDS011;12459;42.646;23.292;2023-09-19T09:02:15;44.10;;;42.10;;
7585;SDS011;12459;42.646;23.292;2023-09-19T09:17:20;42.73;;;40.77;;
7585;SDS011;12459;42.646;23.292;2023-09-19T09:47:42;48.67;;;46.47;;
7585;SDS011;12459;42.646;23.292;2023-09-19T10:02:59;49.80;;;47.53;;
7585;SDS011;12459;42.646;23.292;2023-09-19T10:18:04;50.03;;;47.73;;
7585;SDS011;12459;42.646;23.292;2023-09-19T10:33:06;49.80;;;47.57;;
7585;SDS011;12459;42.646;23.292;2023-09-19T10:48:08;49.53;;;47.30;;
7585;SDS011;12459;42.646;23.292;2023-09-19T11:33:43;54.83;;;52.33;;
7585;SDS011;12459;42.646;23.292;2023-09-19T11:48:48;55.47;;;52.97;;
7585;SDS011;12459;42.646;23.292;2023-09-19T12:03:54;48.67;;;46.47;;
7585;SDS011;12459;42.646;23.292;2023-09-19T12:19:17;53.13;;;50.73;;
7585;SDS011;12459;42.646;23.292;2023-09-19T12:34:26;54.50;;;52.03;;
7585;SDS011;12459;42.646;23.292;2023-09-19T12:49:29;63.63;;;60.77;;
7585;SDS011;12459;42.646;23.292;2023-09-19T13:04:31;56.27;;;53.73;;
7585;SDS011;12459;42.646;23.292;2023-09-19T13:19:42;59.17;;;56.50;;
7585;SDS011;12459;42.646;23.292;2023-09-19T13:34:54;60.90;;;58.20;;
7585;SDS011;12459;42.646;23.292;2023-09-19T13:49:56;65.57;;;62.67;;
7585;SDS011;12459;42.646;23.292;2023-09-19T14:04:58;61.97;;;59.17;;
7585;SDS011;12459;42.646;23.292;2023-09-19T14:20:00;59.33;;;56.67;;
7585;SDS011;12459;42.646;23.292;2023-09-19T14:35:02;58.50;;;55.90;;
7585;SDS011;12459;42.646;23.292;2023-09-19T14:50:04;58.23;;;55.63;;
7585;SDS011;12459;42.646;23.292;2023-09-19T15:05:08;56.77;;;54.20;;
7585;SDS011;12459;42.646;23.292;2023-09-19T15:20:10;55.30;;;52.80;;
7585;SDS011;12459;42.646;23.292;2023-09-19T15:35:15;57.53;;;54.93;;
7585;SDS011;12459;42.646;23.292;2023-09-19T15:50:18;60.27;;;57.53;;
7585;SDS011;12459;42.646;23.292;2023-09-19T16:05:20;54.33;;;51.87;;
7585;SDS011;12459;42.646;23.292;2023-09-19T16:20:22;55.43;;;52.93;;
7585;SDS011;12459;42.646;23.292;2023-09-19T16:35:24;51.77;;;49.43;;
7585;SDS011;12459;42.646;23.292;2023-09-19T16:50:26;48.00;;;45.83;;
7585;SDS011;12459;42.646;23.292;2023-09-19T17:05:29;51.03;;;48.73;;
7585;SDS011;12459;42.646;23.292;2023-09-19T17:20:31;51.13;;;48.83;;
7585;SDS011;12459;42.646;23.292;2023-09-19T17:35:33;50.53;;;48.23;;
7585;SDS011;12459;42.646;23.292;2023-09-19T17:50:35;49.00;;;46.80;;
7585;SDS011;12459;42.646;23.292;2023-09-19T18:05:42;46.80;;;44.70;;
7585;SDS011;12459;42.646;23.292;2023-09-19T18:20:52;45.50;;;43.40;;
7585;SDS011;12459;42.646;23.292;2023-09-19T18:36:00;42.27;;;40.37;;
7585;SDS011;12459;42.646;23.292;2023-09-19T18:51:04;46.47;;;44.37;;
7585;SDS011;12459;42.646;23.292;2023-09-19T19:06:13;40.97;;;39.07;;
7585;SDS011;12459;42.646;23.292;2023-09-19T19:21:17;42.03;;;40.10;;
7585;SDS011;12459;42.646;23.292;2023-09-19T19:36:19;48.30;;;46.10;;
7585;SDS011;12459;42.646;23.292;2023-09-19T19:51:24;44.80;;;42.77;;
7585;SDS011;12459;42.646;23.292;2023-09-19T20:06:26;45.63;;;43.53;;
7585;SDS011;12459;42.646;23.292;2023-09-19T20:21:28;45.57;;;43.47;;
7585;SDS011;12459;42.646;23.292;2023-09-19T20:36:30;43.27;;;41.30;;
7585;SDS011;12459;42.646;23.292;2023-09-19T20:51:32;41.80;;;39.90;;
7585;SDS011;12459;42.646;23.292;2023-09-19T21:06:36;39.67;;;37.87;;
7585;SDS011;12459;42.646;23.292;2023-09-19T21:21:38;44.20;;;42.17;;
7585;SDS011;12459;42.646;23.292;2023-09-19T21:36:40;44.93;;;42.90;;
7585;SDS011;12459;42.646;23.292;2023-09-19T21:51:42;46.30;;;44.20;;
7585;SDS011;12459;42.646;23.292;2023-09-19T22:06:44;47.70;;;45.50;;
7585;SDS011;12459;42.646;23.292;2023-09-19T22:21:46;48.77;;;46.57;;
7585;SDS011;12459;42.646;23.292;2023-09-19T22:36:51;45.50;;;43.40;;
7585;SDS011;12459;42.646;23.292;2023-09-19T22:51:55;47.47;;;45.30;;
7585;SDS011;12459;42.646;23.292;2023-09-19T23:07:01;44.83;;;42.83;;
7585;SDS011;12459;42.646;23.292;2023-09-19T23:22:06;46.57;;;44.43;;
7585;SDS011;12459;42.646;23.292;2023-09-19T23:37:24;49.03;;;46.83;;
7585;SDS011;12459;42.646;23.292;2023-09-19T23:52:26;48.10;;;45.90;;
